sensor_id;sensor_type;location;lat;lon;timestamp;P1;durP1;ratioP1;P2;durP2;ratioP2
15063;SDS011;7631;52.088;5.088;2023-07-09T00:01:17;4.57;;;4.18;;
15063;SDS011;7631;52.088;5.088;2023-07-09T00:03:43;4.72;;;4.03;;
15063;SDS011;7631;52.088;5.088;2023-07-09T00:06:08;4.03;;;3.70;;
15063;SDS011;7631;52.088;5.088;2023-07-09T00:08:34;4.22;;;3.83;;
15063;SDS011;7631;52.088;5.088;2023-07-09T00:10:59;4.35;;;3.95;;
15063;SDS011;7631;52.088;5.088;2023-07-09T00:13:25;4.43;;;4.03;;
15063;SDS011;7631;52.088;5.088;2023-07-09T00:15:51;4.65;;;4.25;;
15063;SDS011;7631;52.088;5.088;2023-07-09T00:18:17;4.60;;;4.20;;
15063;SDS011;7631;52.088;5.088;2023-07-09T00:20:42;4.53;;;4.13;;
15063;SDS011;7631;52.088;5.088;2023-07-09T00:23:08;4.70;;;4.28;;
15063;SDS011;7631;52.088;5.088;2023-07-09T00:25:34;4.45;;;4.05;;
15063;SDS011;7631;52.088;5.088;2023-07-09T00:28:01;4.53;;;4.13;;
15063;SDS011;7631;52.088;5.088;2023-07-09T00:30:26;4.68;;;4.18;;
15063;SDS011;7631;52.088;5.088;2023-07-09T00:32:51;5.10;;;4.60;;
15063;SDS011;7631;52.088;5.088;2023-07-09T00:35:18;4.43;;;4.03;;
15063;SDS011;7631;52.088;5.088;2023-07-09T00:37:44;4.30;;;3.90;;
15063;SDS011;7631;52.088;5.088;2023-07-09T00:40:16;4.82;;;4.43;;
15063;SDS011;7631;52.088;5.088;2023-07-09T00:42:46;4.20;;;3.80;;
15063;SDS011;7631;52.088;5.088;2023-07-09T00:45:17;5.10;;;3.83;;
15063;SDS011;7631;52.088;5.088;2023-07-09T00:47:53;4.35;;;3.95;;
15063;SDS011;7631;52.088;5.088;2023-07-09T00:53:17;4.20;;;3.75;;
15063;SDS011;7631;52.088;5.088;2023-07-09T00:55:44;4.22;;;3.83;;
15063;SDS011;7631;52.088;5.088;2023-07-09T00:58:11;4.63;;;4.13;;
15063;SDS011;7631;52.088;5.088;2023-07-09T01:00:42;4.78;;;4.32;;
15063;SDS011;7631;52.088;5.088;2023-07-09T01:05:38;4.60;;;4.10;;
15063;SDS011;7631;52.088;5.088;2023-07-09T01:08:05;4.78;;;4.25;;
15063;SDS011;7631;52.088;5.088;2023-07-09T01:10:30;4.80;;;4.15;;
15063;SDS011;7631;52.088;5.088;2023-07-09T01:12:56;4.72;;;4.13;;
15063;SDS011;7631;52.088;5.088;2023-07-09T01:15:21;4.90;;;4.10;;
15063;SDS011;7631;52.088;5.088;2023-07-09T01:17:47;5.13;;;4.32;;
15063;SDS011;7631;52.088;5.088;2023-07-09T01:20:16;4.75;;;4.20;;
15063;SDS011;7631;52.088;5.088;2023-07-09T01:22:46;4.40;;;3.95;;
15063;SDS011;7631;52.088;5.088;2023-07-09T01:25:14;4.53;;;3.88;;
15063;SDS011;7631;52.088;5.088;2023-07-09T01:27:41;4.15;;;3.78;;
15063;SDS011;7631;52.088;5.088;2023-07-09T01:30:08;4.35;;;3.95;;
15063;SDS011;7631;52.088;5.088;2023-07-09T01:32:34;4.25;;;3.85;;
15063;SDS011;7631;52.088;5.088;2023-07-09T01:35:00;4.10;;;3.70;;
15063;SDS011;7631;52.088;5.088;2023-07-09T01:37:30;4.20;;;3.80;;
15063;SDS011;7631;52.088;5.088;2023-07-09T01:39:56;4.60;;;3.78;;
15063;SDS011;7631;52.088;5.088;2023-07-09T01:42:22;4.55;;;4.10;;
15063;SDS011;7631;52.088;5.088;2023-07-09T01:44:48;4.57;;;3.88;;
15063;SDS011;7631;52.088;5.088;2023-07-09T01:47:15;4.13;;;3.72;;
15063;SDS011;7631;52.088;5.088;2023-07-09T01:49:40;4.97;;;4.05;;
15063;SDS011;7631;52.088;5.088;2023-07-09T01:52:06;4.30;;;3.90;;
15063;SDS011;7631;52.088;5.088;2023-07-09T01:54:33;4.28;;;3.88;;
15063;SDS011;7631;52.088;5.088;2023-07-09T01:57:13;4.53;;;3.80;;
15063;SDS011;7631;52.088;5.088;2023-07-09T01:59:39;4.75;;;4.35;;
15063;SDS011;7631;52.088;5.088;2023-07-09T02:02:06;4.72;;;4.13;;
15063;SDS011;7631;52.088;5.088;2023-07-09T02:04:31;4.50;;;4.00;;
15063;SDS011;7631;52.088;5.088;2023-07-09T02:06:56;4.97;;;4.47;;
15063;SDS011;7631;52.088;5.088;2023-07-09T02:09:22;4.75;;;4.28;;
15063;SDS011;7631;52.088;5.088;2023-07-09T02:11:47;4.63;;;4.15;;
15063;SDS011;7631;52.088;5.088;2023-07-09T02:14:12;4.20;;;3.80;;
15063;SDS011;7631;52.088;5.088;2023-07-09T02:16:37;4.28;;;3.88;;
15063;SDS011;7631;52.088;5.088;2023-07-09T02:19:03;4.32;;;3.92;;
15063;SDS011;7631;52.088;5.088;2023-07-09T02:21:28;4.40;;;4.00;;
15063;SDS011;7631;52.088;5.088;2023-07-09T02:23:54;4.90;;;4.32;;
15063;SDS011;7631;52.088;5.088;2023-07-09T02:26:20;4.60;;;4.20;;
15063;SDS011;7631;52.088;5.088;2023-07-09T02:28:45;4.68;;;4.20;;
15063;SDS011;7631;52.088;5.088;2023-07-09T02:31:11;4.60;;;3.85;;
15063;SDS011;7631;52.088;5.088;2023-07-09T02:33:36;4.35;;;3.95;;
15063;SDS011;7631;52.088;5.088;2023-07-09T02:36:01;4.45;;;4.05;;
15063;SDS011;7631;52.088;5.088;2023-07-09T02:38:26;4.07;;;3.67;;
15063;SDS011;7631;52.088;5.088;2023-07-09T02:40:52;5.25;;;4.32;;
15063;SDS011;7631;52.088;5.088;2023-07-09T02:43:18;4.03;;;3.72;;
15063;SDS011;7631;52.088;5.088;2023-07-09T02:45:43;4.43;;;3.97;;
15063;SDS011;7631;52.088;5.088;2023-07-09T02:48:09;4.65;;;4.18;;
15063;SDS011;7631;52.088;5.088;2023-07-09T02:50:34;4.63;;;4.22;;
15063;SDS011;7631;52.088;5.088;2023-07-09T02:52:59;4.40;;;4.00;;
15063;SDS011;7631;52.088;5.088;2023-07-09T02:55:25;4.10;;;3.70;;
15063;SDS011;7631;52.088;5.088;2023-07-09T02:57:50;3.83;;;3.53;;
15063;SDS011;7631;52.088;5.088;2023-07-09T03:00:16;4.28;;;3.65;;
15063;SDS011;7631;52.088;5.088;2023-07-09T03:02:41;4.47;;;4.05;;
15063;SDS011;7631;52.088;5.088;2023-07-09T03:05:06;5.88;;;4.43;;
15063;SDS011;7631;52.088;5.088;2023-07-09T03:07:31;4.70;;;4.20;;
15063;SDS011;7631;52.088;5.088;2023-07-09T03:09:57;4.97;;;4.40;;
15063;SDS011;7631;52.088;5.088;2023-07-09T03:12:22;4.60;;;4.20;;
15063;SDS011;7631;52.088;5.088;2023-07-09T03:14:48;4.30;;;3.88;;
15063;SDS011;7631;52.088;5.088;2023-07-09T03:17:14;4.60;;;4.20;;
15063;SDS011;7631;52.088;5.088;2023-07-09T03:19:39;4.43;;;4.03;;
15063;SDS011;7631;52.088;5.088;2023-07-09T03:22:04;5.05;;;4.22;;
15063;SDS011;7631;52.088;5.088;2023-07-09T03:24:30;5.05;;;4.40;;
15063;SDS011;7631;52.088;5.088;2023-07-09T03:26:55;4.82;;;4.32;;
15063;SDS011;7631;52.088;5.088;2023-07-09T03:29:20;5.22;;;4.40;;
15063;SDS011;7631;52.088;5.088;2023-07-09T03:31:45;4.50;;;4.05;;
15063;SDS011;7631;52.088;5.088;2023-07-09T03:34:10;4.28;;;3.88;;
15063;SDS011;7631;52.088;5.088;2023-07-09T03:36:36;4.93;;;4.28;;
15063;SDS011;7631;52.088;5.088;2023-07-09T03:39:02;4.72;;;4.32;;
15063;SDS011;7631;52.088;5.088;2023-07-09T03:41:27;4.55;;;4.15;;
15063;SDS011;7631;52.088;5.088;2023-07-09T03:43:53;4.38;;;3.97;;
15063;SDS011;7631;52.088;5.088;2023-07-09T03:46:18;4.65;;;4.25;;
15063;SDS011;7631;52.088;5.088;2023-07-09T03:48:43;4.32;;;3.92;;
15063;SDS011;7631;52.088;5.088;2023-07-09T03:51:09;4.57;;;4.15;;
15063;SDS011;7631;52.088;5.088;2023-07-09T03:53:34;5.55;;;4.18;;
15063;SDS011;7631;52.088;5.088;2023-07-09T03:55:59;5.30;;;4.80;;
15063;SDS011;7631;52.088;5.088;2023-07-09T03:58:25;4.80;;;4.30;;
15063;SDS011;7631;52.088;5.088;2023-07-09T04:00:50;5.93;;;4.00;;
15063;SDS011;7631;52.088;5.088;2023-07-09T04:03:15;4.88;;;4.38;;
15063;SDS011;7631;52.088;5.088;2023-07-09T04:05:41;5.13;;;4.63;;
15063;SDS011;7631;52.088;5.088;2023-07-09T04:08:06;6.40;;;5.10;;
15063;SDS011;7631;52.088;5.088;2023-07-09T04:10:31;5.07;;;4.57;;
15063;SDS011;7631;52.088;5.088;2023-07-09T04:12:57;5.25;;;4.65;;
15063;SDS011;7631;52.088;5.088;2023-07-09T04:15:22;5.10;;;4.00;;
15063;SDS011;7631;52.088;5.088;2023-07-09T04:17:47;4.30;;;3.90;;
15063;SDS011;7631;52.088;5.088;2023-07-09T04:20:12;5.07;;;4.57;;
15063;SDS011;7631;52.088;5.088;2023-07-09T04:22:39;5.85;;;4.25;;
15063;SDS011;7631;52.088;5.088;2023-07-09T04:25:05;4.57;;;4.18;;
15063;SDS011;7631;52.088;5.088;2023-07-09T04:27:31;4.50;;;4.10;;
15063;SDS011;7631;52.088;5.088;2023-07-09T04:29:56;4.35;;;3.92;;
15063;SDS011;7631;52.088;5.088;2023-07-09T04:32:22;4.55;;;4.15;;
15063;SDS011;7631;52.088;5.088;2023-07-09T04:34:47;4.93;;;4.45;;
15063;SDS011;7631;52.088;5.088;2023-07-09T04:37:13;4.78;;;4.28;;
15063;SDS011;7631;52.088;5.088;2023-07-09T04:39:38;4.65;;;4.25;;
15063;SDS011;7631;52.088;5.088;2023-07-09T04:42:04;4.50;;;4.10;;
15063;SDS011;7631;52.088;5.088;2023-07-09T04:44:30;4.60;;;4.20;;
15063;SDS011;7631;52.088;5.088;2023-07-09T04:46:55;4.63;;;4.22;;
15063;SDS011;7631;52.088;5.088;2023-07-09T04:49:21;4.53;;;4.13;;
15063;SDS011;7631;52.088;5.088;2023-07-09T04:51:46;4.28;;;3.88;;
15063;SDS011;7631;52.088;5.088;2023-07-09T04:54:11;4.30;;;3.90;;
15063;SDS011;7631;52.088;5.088;2023-07-09T04:56:39;4.63;;;4.20;;
15063;SDS011;7631;52.088;5.088;2023-07-09T04:59:04;4.82;;;4.40;;
15063;SDS011;7631;52.088;5.088;2023-07-09T05:01:29;4.72;;;4.32;;
15063;SDS011;7631;52.088;5.088;2023-07-09T05:03:54;4.43;;;4.03;;
15063;SDS011;7631;52.088;5.088;2023-07-09T05:06:20;4.63;;;4.05;;
15063;SDS011;7631;52.088;5.088;2023-07-09T05:08:46;4.68;;;4.18;;
15063;SDS011;7631;52.088;5.088;2023-07-09T05:11:13;4.88;;;4.38;;
15063;SDS011;7631;52.088;5.088;2023-07-09T05:13:38;4.10;;;3.70;;
15063;SDS011;7631;52.088;5.088;2023-07-09T05:16:03;4.65;;;4.25;;
15063;SDS011;7631;52.088;5.088;2023-07-09T05:18:29;4.88;;;4.43;;
15063;SDS011;7631;52.088;5.088;2023-07-09T05:20:54;4.60;;;4.20;;
15063;SDS011;7631;52.088;5.088;2023-07-09T05:23:20;4.65;;;4.20;;
15063;SDS011;7631;52.088;5.088;2023-07-09T05:25:45;4.03;;;3.63;;
15063;SDS011;7631;52.088;5.088;2023-07-09T05:28:11;4.00;;;3.60;;
15063;SDS011;7631;52.088;5.088;2023-07-09T05:30:36;4.60;;;4.00;;
15063;SDS011;7631;52.088;5.088;2023-07-09T05:33:01;4.30;;;3.90;;
15063;SDS011;7631;52.088;5.088;2023-07-09T05:35:26;4.60;;;4.10;;
15063;SDS011;7631;52.088;5.088;2023-07-09T05:37:52;4.35;;;3.90;;
15063;SDS011;7631;52.088;5.088;2023-07-09T05:40:18;4.43;;;4.03;;
15063;SDS011;7631;52.088;5.088;2023-07-09T05:42:43;4.43;;;4.03;;
15063;SDS011;7631;52.088;5.088;2023-07-09T05:45:08;4.70;;;4.30;;
15063;SDS011;7631;52.088;5.088;2023-07-09T05:47:34;4.22;;;3.83;;
15063;SDS011;7631;52.088;5.088;2023-07-09T05:49:59;4.57;;;4.18;;
15063;SDS011;7631;52.088;5.088;2023-07-09T05:52:24;4.32;;;3.92;;
15063;SDS011;7631;52.088;5.088;2023-07-09T05:54:50;4.90;;;4.50;;
15063;SDS011;7631;52.088;5.088;2023-07-09T05:57:15;4.47;;;4.05;;
15063;SDS011;7631;52.088;5.088;2023-07-09T05:59:40;4.30;;;3.90;;
15063;SDS011;7631;52.088;5.088;2023-07-09T06:02:16;4.95;;;4.55;;
15063;SDS011;7631;52.088;5.088;2023-07-09T06:04:41;4.30;;;3.90;;
15063;SDS011;7631;52.088;5.088;2023-07-09T06:07:07;4.90;;;4.40;;
15063;SDS011;7631;52.088;5.088;2023-07-09T06:09:32;5.05;;;4.13;;
15063;SDS011;7631;52.088;5.088;2023-07-09T06:11:58;4.60;;;4.20;;
15063;SDS011;7631;52.088;5.088;2023-07-09T06:14:23;4.60;;;4.13;;
15063;SDS011;7631;52.088;5.088;2023-07-09T06:16:49;5.03;;;4.53;;
15063;SDS011;7631;52.088;5.088;2023-07-09T06:19:14;4.47;;;4.07;;
15063;SDS011;7631;52.088;5.088;2023-07-09T06:21:39;4.60;;;4.00;;
15063;SDS011;7631;52.088;5.088;2023-07-09T06:24:05;4.75;;;4.22;;
15063;SDS011;7631;52.088;5.088;2023-07-09T06:26:30;5.65;;;4.30;;
15063;SDS011;7631;52.088;5.088;2023-07-09T06:28:56;4.50;;;4.10;;
15063;SDS011;7631;52.088;5.088;2023-07-09T06:31:21;4.75;;;4.28;;
15063;SDS011;7631;52.088;5.088;2023-07-09T06:33:47;5.13;;;4.57;;
15063;SDS011;7631;52.088;5.088;2023-07-09T06:36:12;4.70;;;4.30;;
15063;SDS011;7631;52.088;5.088;2023-07-09T06:38:37;4.85;;;4.40;;
15063;SDS011;7631;52.088;5.088;2023-07-09T06:41:03;4.68;;;4.05;;
15063;SDS011;7631;52.088;5.088;2023-07-09T06:43:28;4.85;;;4.35;;
15063;SDS011;7631;52.088;5.088;2023-07-09T06:45:57;4.78;;;4.38;;
15063;SDS011;7631;52.088;5.088;2023-07-09T06:48:23;5.20;;;4.57;;
15063;SDS011;7631;52.088;5.088;2023-07-09T06:50:49;5.00;;;4.50;;
15063;SDS011;7631;52.088;5.088;2023-07-09T06:53:14;4.82;;;4.43;;
15063;SDS011;7631;52.088;5.088;2023-07-09T06:55:40;4.90;;;4.50;;
15063;SDS011;7631;52.088;5.088;2023-07-09T06:58:05;4.80;;;4.13;;
15063;SDS011;7631;52.088;5.088;2023-07-09T07:00:31;4.97;;;4.47;;
15063;SDS011;7631;52.088;5.088;2023-07-09T07:02:56;4.80;;;4.38;;
15063;SDS011;7631;52.088;5.088;2023-07-09T07:05:21;5.20;;;4.70;;
15063;SDS011;7631;52.088;5.088;2023-07-09T07:07:47;4.60;;;4.20;;
15063;SDS011;7631;52.088;5.088;2023-07-09T07:10:12;5.90;;;5.30;;
15063;SDS011;7631;52.088;5.088;2023-07-09T07:12:41;6.53;;;5.32;;
15063;SDS011;7631;52.088;5.088;2023-07-09T07:15:07;5.85;;;5.35;;
15063;SDS011;7631;52.088;5.088;2023-07-09T07:17:32;5.93;;;5.10;;
15063;SDS011;7631;52.088;5.088;2023-07-09T07:19:58;9.52;;;6.95;;
15063;SDS011;7631;52.088;5.088;2023-07-09T07:22:23;6.85;;;6.15;;
15063;SDS011;7631;52.088;5.088;2023-07-09T07:24:48;6.70;;;6.10;;
15063;SDS011;7631;52.088;5.088;2023-07-09T07:27:13;6.78;;;5.97;;
15063;SDS011;7631;52.088;5.088;2023-07-09T07:29:39;6.63;;;5.78;;
15063;SDS011;7631;52.088;5.088;2023-07-09T07:32:04;6.38;;;5.78;;
15063;SDS011;7631;52.088;5.088;2023-07-09T07:34:29;7.35;;;6.00;;
15063;SDS011;7631;52.088;5.088;2023-07-09T07:36:55;6.88;;;6.18;;
15063;SDS011;7631;52.088;5.088;2023-07-09T07:39:20;8.57;;;7.10;;
15063;SDS011;7631;52.088;5.088;2023-07-09T07:41:45;8.98;;;6.80;;
15063;SDS011;7631;52.088;5.088;2023-07-09T07:44:10;7.10;;;6.38;;
15063;SDS011;7631;52.088;5.088;2023-07-09T07:46:35;7.18;;;6.30;;
15063;SDS011;7631;52.088;5.088;2023-07-09T07:49:01;7.70;;;5.97;;
15063;SDS011;7631;52.088;5.088;2023-07-09T07:51:26;6.55;;;5.80;;
15063;SDS011;7631;52.088;5.088;2023-07-09T07:53:52;6.78;;;6.18;;
15063;SDS011;7631;52.088;5.088;2023-07-09T07:56:17;7.78;;;6.97;;
15063;SDS011;7631;52.088;5.088;2023-07-09T07:58:43;6.85;;;6.25;;
15063;SDS011;7631;52.088;5.088;2023-07-09T08:01:08;7.20;;;6.50;;
15063;SDS011;7631;52.088;5.088;2023-07-09T08:03:33;7.97;;;6.60;;
15063;SDS011;7631;52.088;5.088;2023-07-09T08:05:58;7.63;;;6.57;;
15063;SDS011;7631;52.088;5.088;2023-07-09T08:08:24;6.57;;;5.97;;
15063;SDS011;7631;52.088;5.088;2023-07-09T08:10:49;6.95;;;6.35;;
15063;SDS011;7631;52.088;5.088;2023-07-09T08:13:16;6.53;;;5.90;;
15063;SDS011;7631;52.088;5.088;2023-07-09T08:15:41;8.23;;;6.32;;
15063;SDS011;7631;52.088;5.088;2023-07-09T08:18:07;6.93;;;6.32;;
15063;SDS011;7631;52.088;5.088;2023-07-09T08:20:32;6.45;;;5.85;;
15063;SDS011;7631;52.088;5.088;2023-07-09T08:22:58;7.68;;;6.55;;
15063;SDS011;7631;52.088;5.088;2023-07-09T08:25:23;6.65;;;6.05;;
15063;SDS011;7631;52.088;5.088;2023-07-09T08:27:48;7.18;;;6.47;;
15063;SDS011;7631;52.088;5.088;2023-07-09T08:30:14;7.43;;;6.50;;
15063;SDS011;7631;52.088;5.088;2023-07-09T08:32:39;6.60;;;5.85;;
15063;SDS011;7631;52.088;5.088;2023-07-09T08:35:04;7.57;;;6.78;;
15063;SDS011;7631;52.088;5.088;2023-07-09T08:37:29;7.85;;;6.47;;
15063;SDS011;7631;52.088;5.088;2023-07-09T08:39:55;7.07;;;6.43;;
15063;SDS011;7631;52.088;5.088;2023-07-09T08:42:54;7.68;;;6.97;;
15063;SDS011;7631;52.088;5.088;2023-07-09T08:45:15;8.05;;;6.72;;
15063;SDS011;7631;52.088;5.088;2023-07-09T08:47:51;8.55;;;7.75;;
15063;SDS011;7631;52.088;5.088;2023-07-09T08:50:22;7.95;;;7.15;;
15063;SDS011;7631;52.088;5.088;2023-07-09T08:52:49;8.57;;;7.60;;
15063;SDS011;7631;52.088;5.088;2023-07-09T08:55:18;7.75;;;7.05;;
15063;SDS011;7631;52.088;5.088;2023-07-09T08:57:45;7.85;;;7.05;;
15063;SDS011;7631;52.088;5.088;2023-07-09T09:00:15;8.95;;;7.63;;
15063;SDS011;7631;52.088;5.088;2023-07-09T09:03:05;7.30;;;6.65;;
15063;SDS011;7631;52.088;5.088;2023-07-09T09:05:27;7.82;;;7.03;;
15063;SDS011;7631;52.088;5.088;2023-07-09T09:07:57;7.70;;;7.00;;
15063;SDS011;7631;52.088;5.088;2023-07-09T09:10:44;7.85;;;7.07;;
15063;SDS011;7631;52.088;5.088;2023-07-09T09:13:12;8.07;;;7.28;;
15063;SDS011;7631;52.088;5.088;2023-07-09T09:15:39;8.45;;;7.65;;
15063;SDS011;7631;52.088;5.088;2023-07-09T09:18:24;8.00;;;7.20;;
15063;SDS011;7631;52.088;5.088;2023-07-09T09:20:58;7.88;;;7.07;;
15063;SDS011;7631;52.088;5.088;2023-07-09T09:23:28;8.15;;;7.30;;
15063;SDS011;7631;52.088;5.088;2023-07-09T09:25:56;7.15;;;6.55;;
15063;SDS011;7631;52.088;5.088;2023-07-09T09:28:26;8.35;;;7.60;;
15063;SDS011;7631;52.088;5.088;2023-07-09T09:30:52;8.27;;;7.20;;
15063;SDS011;7631;52.088;5.088;2023-07-09T09:33:17;8.63;;;7.70;;
15063;SDS011;7631;52.088;5.088;2023-07-09T09:35:43;8.50;;;7.63;;
15063;SDS011;7631;52.088;5.088;2023-07-09T09:38:10;8.30;;;7.50;;
15063;SDS011;7631;52.088;5.088;2023-07-09T09:40:35;8.65;;;7.57;;
15063;SDS011;7631;52.088;5.088;2023-07-09T09:43:01;9.02;;;8.23;;
15063;SDS011;7631;52.088;5.088;2023-07-09T09:45:31;8.48;;;7.68;;
15063;SDS011;7631;52.088;5.088;2023-07-09T09:47:58;9.00;;;8.10;;
15063;SDS011;7631;52.088;5.088;2023-07-09T09:50:24;8.40;;;7.60;;
15063;SDS011;7631;52.088;5.088;2023-07-09T09:52:51;8.80;;;8.00;;
15063;SDS011;7631;52.088;5.088;2023-07-09T09:55:22;8.32;;;7.63;;
15063;SDS011;7631;52.088;5.088;2023-07-09T09:57:48;8.93;;;8.13;;
15063;SDS011;7631;52.088;5.088;2023-07-09T10:00:14;8.40;;;7.60;;
15063;SDS011;7631;52.088;5.088;2023-07-09T10:02:41;8.35;;;7.65;;
15063;SDS011;7631;52.088;5.088;2023-07-09T10:05:13;8.30;;;7.60;;
15063;SDS011;7631;52.088;5.088;2023-07-09T10:07:39;8.68;;;7.88;;
15063;SDS011;7631;52.088;5.088;2023-07-09T10:10:13;8.63;;;7.75;;
15063;SDS011;7631;52.088;5.088;2023-07-09T10:15:08;8.88;;;8.07;;
15063;SDS011;7631;52.088;5.088;2023-07-09T10:17:38;8.20;;;7.40;;
15063;SDS011;7631;52.088;5.088;2023-07-09T10:25:04;8.20;;;7.50;;
15063;SDS011;7631;52.088;5.088;2023-07-09T10:27:34;7.78;;;7.07;;
15063;SDS011;7631;52.088;5.088;2023-07-09T10:40:10;9.43;;;8.32;;
15063;SDS011;7631;52.088;5.088;2023-07-09T10:42:41;7.72;;;7.03;;
15063;SDS011;7631;52.088;5.088;2023-07-09T10:45:10;7.63;;;6.97;;
15063;SDS011;7631;52.088;5.088;2023-07-09T10:47:38;7.75;;;7.15;;
15063;SDS011;7631;52.088;5.088;2023-07-09T10:50:06;8.02;;;7.32;;
15063;SDS011;7631;52.088;5.088;2023-07-09T10:52:37;8.10;;;7.40;;
15063;SDS011;7631;52.088;5.088;2023-07-09T11:00:19;8.15;;;7.43;;
15063;SDS011;7631;52.088;5.088;2023-07-09T11:02:45;7.90;;;7.20;;
15063;SDS011;7631;52.088;5.088;2023-07-09T11:05:12;8.15;;;7.38;;
15063;SDS011;7631;52.088;5.088;2023-07-09T11:07:48;7.72;;;7.03;;
15063;SDS011;7631;52.088;5.088;2023-07-09T11:10:35;7.63;;;6.93;;
15063;SDS011;7631;52.088;5.088;2023-07-09T11:13:02;7.70;;;7.00;;
15063;SDS011;7631;52.088;5.088;2023-07-09T11:15:31;7.22;;;6.63;;
15063;SDS011;7631;52.088;5.088;2023-07-09T11:17:57;7.85;;;7.25;;
15063;SDS011;7631;52.088;5.088;2023-07-09T11:20:28;7.18;;;6.60;;
15063;SDS011;7631;52.088;5.088;2023-07-09T11:23:03;6.93;;;6.25;;
15063;SDS011;7631;52.088;5.088;2023-07-09T11:28:04;7.45;;;6.80;;
15063;SDS011;7631;52.088;5.088;2023-07-09T11:30:30;8.02;;;7.28;;
15063;SDS011;7631;52.088;5.088;2023-07-09T11:32:59;7.72;;;7.03;;
15063;SDS011;7631;52.088;5.088;2023-07-09T11:35:26;7.13;;;6.53;;
15063;SDS011;7631;52.088;5.088;2023-07-09T11:37:52;7.45;;;6.75;;
15063;SDS011;7631;52.088;5.088;2023-07-09T11:40:21;7.60;;;7.00;;
15063;SDS011;7631;52.088;5.088;2023-07-09T11:42:48;7.38;;;6.68;;
15063;SDS011;7631;52.088;5.088;2023-07-09T11:45:15;7.15;;;6.55;;
15063;SDS011;7631;52.088;5.088;2023-07-09T11:50:23;7.33;;;6.73;;
15063;SDS011;7631;52.088;5.088;2023-07-09T11:52:51;7.70;;;7.00;;
15063;SDS011;7631;52.088;5.088;2023-07-09T11:55:19;7.70;;;7.00;;
15063;SDS011;7631;52.088;5.088;2023-07-09T11:57:47;7.13;;;6.53;;
15063;SDS011;7631;52.088;5.088;2023-07-09T12:00:12;7.30;;;6.70;;
15063;SDS011;7631;52.088;5.088;2023-07-09T12:02:38;6.85;;;6.25;;
15063;SDS011;7631;52.088;5.088;2023-07-09T12:05:03;7.38;;;6.45;;
15063;SDS011;7631;52.088;5.088;2023-07-09T12:07:29;6.72;;;6.22;;
15063;SDS011;7631;52.088;5.088;2023-07-09T12:09:54;6.18;;;5.68;;
15063;SDS011;7631;52.088;5.088;2023-07-09T12:12:24;6.53;;;5.93;;
15063;SDS011;7631;52.088;5.088;2023-07-09T12:14:50;6.53;;;5.95;;
15063;SDS011;7631;52.088;5.088;2023-07-09T12:17:15;6.55;;;5.97;;
15063;SDS011;7631;52.088;5.088;2023-07-09T12:19:41;6.57;;;5.97;;
15063;SDS011;7631;52.088;5.088;2023-07-09T12:22:09;5.95;;;5.40;;
15063;SDS011;7631;52.088;5.088;2023-07-09T12:24:36;6.28;;;5.68;;
15063;SDS011;7631;52.088;5.088;2023-07-09T12:27:02;6.78;;;6.18;;
15063;SDS011;7631;52.088;5.088;2023-07-09T12:29:29;6.53;;;5.82;;
15063;SDS011;7631;52.088;5.088;2023-07-09T12:31:58;6.43;;;5.82;;
15063;SDS011;7631;52.088;5.088;2023-07-09T12:34:23;5.93;;;5.35;;
15063;SDS011;7631;52.088;5.088;2023-07-09T12:36:49;6.22;;;5.68;;
15063;SDS011;7631;52.088;5.088;2023-07-09T12:39:19;6.07;;;5.47;;
15063;SDS011;7631;52.088;5.088;2023-07-09T12:41:46;5.90;;;5.38;;
15063;SDS011;7631;52.088;5.088;2023-07-09T12:44:19;6.53;;;5.82;;
15063;SDS011;7631;52.088;5.088;2023-07-09T12:46:46;6.32;;;5.72;;
15063;SDS011;7631;52.088;5.088;2023-07-09T12:49:20;6.18;;;5.30;;
15063;SDS011;7631;52.088;5.088;2023-07-09T12:51:46;6.10;;;5.50;;
15063;SDS011;7631;52.088;5.088;2023-07-09T12:54:15;5.68;;;5.18;;
15063;SDS011;7631;52.088;5.088;2023-07-09T12:56:42;5.90;;;5.28;;
15063;SDS011;7631;52.088;5.088;2023-07-09T13:02:01;5.95;;;5.35;;
15063;SDS011;7631;52.088;5.088;2023-07-09T13:04:31;5.93;;;5.43;;
15063;SDS011;7631;52.088;5.088;2023-07-09T13:06:56;6.00;;;5.40;;
15063;SDS011;7631;52.088;5.088;2023-07-09T13:09:24;5.75;;;5.35;;
15063;SDS011;7631;52.088;5.088;2023-07-09T13:11:50;5.68;;;5.18;;
15063;SDS011;7631;52.088;5.088;2023-07-09T13:14:20;5.63;;;5.13;;
15063;SDS011;7631;52.088;5.088;2023-07-09T13:16:46;5.53;;;4.93;;
15063;SDS011;7631;52.088;5.088;2023-07-09T13:19:11;4.70;;;4.30;;
15063;SDS011;7631;52.088;5.088;2023-07-09T13:21:37;4.68;;;4.28;;
15063;SDS011;7631;52.088;5.088;2023-07-09T13:24:07;4.68;;;4.28;;
15063;SDS011;7631;52.088;5.088;2023-07-09T13:26:35;5.03;;;4.53;;
15063;SDS011;7631;52.088;5.088;2023-07-09T13:29:01;4.95;;;4.32;;
15063;SDS011;7631;52.088;5.088;2023-07-09T13:31:26;4.40;;;3.60;;
15063;SDS011;7631;52.088;5.088;2023-07-09T13:33:55;4.85;;;3.72;;
15063;SDS011;7631;52.088;5.088;2023-07-09T13:36:21;3.75;;;3.28;;
15063;SDS011;7631;52.088;5.088;2023-07-09T13:38:47;4.78;;;3.55;;
15063;SDS011;7631;52.088;5.088;2023-07-09T13:41:14;4.28;;;3.58;;
15063;SDS011;7631;52.088;5.088;2023-07-09T13:43:41;3.63;;;3.30;;
15063;SDS011;7631;52.088;5.088;2023-07-09T13:46:07;7.68;;;3.90;;
15063;SDS011;7631;52.088;5.088;2023-07-09T13:48:32;4.28;;;3.88;;
15063;SDS011;7631;52.088;5.088;2023-07-09T13:50:58;4.85;;;3.35;;
15063;SDS011;7631;52.088;5.088;2023-07-09T13:53:25;3.92;;;3.53;;
15063;SDS011;7631;52.088;5.088;2023-07-09T13:55:51;5.03;;;4.03;;
15063;SDS011;7631;52.088;5.088;2023-07-09T13:58:17;4.18;;;3.42;;
15063;SDS011;7631;52.088;5.088;2023-07-09T14:00:43;3.72;;;3.30;;
15063;SDS011;7631;52.088;5.088;2023-07-09T14:03:18;4.53;;;3.47;;
15063;SDS011;7631;52.088;5.088;2023-07-09T14:05:44;3.95;;;3.45;;
15063;SDS011;7631;52.088;5.088;2023-07-09T14:08:10;4.60;;;3.67;;
15063;SDS011;7631;52.088;5.088;2023-07-09T14:10:36;4.43;;;3.40;;
15063;SDS011;7631;52.088;5.088;2023-07-09T14:13:01;4.18;;;3.70;;
15063;SDS011;7631;52.088;5.088;2023-07-09T14:15:29;4.28;;;3.67;;
15063;SDS011;7631;52.088;5.088;2023-07-09T14:17:54;5.00;;;3.30;;
15063;SDS011;7631;52.088;5.088;2023-07-09T14:20:21;3.90;;;3.10;;
15063;SDS011;7631;52.088;5.088;2023-07-09T14:22:46;3.67;;;3.20;;
15063;SDS011;7631;52.088;5.088;2023-07-09T14:25:19;3.85;;;3.50;;
15063;SDS011;7631;52.088;5.088;2023-07-09T14:27:45;4.43;;;3.95;;
15063;SDS011;7631;52.088;5.088;2023-07-09T14:30:13;4.00;;;3.20;;
15063;SDS011;7631;52.088;5.088;2023-07-09T14:32:39;4.97;;;3.60;;
15063;SDS011;7631;52.088;5.088;2023-07-09T14:35:17;4.20;;;3.47;;
15063;SDS011;7631;52.088;5.088;2023-07-09T14:37:43;4.50;;;3.30;;
15063;SDS011;7631;52.088;5.088;2023-07-09T14:40:09;4.28;;;3.15;;
15063;SDS011;7631;52.088;5.088;2023-07-09T14:42:35;3.78;;;3.13;;
15063;SDS011;7631;52.088;5.088;2023-07-09T14:45:01;5.80;;;3.33;;
15063;SDS011;7631;52.088;5.088;2023-07-09T14:47:33;5.70;;;3.88;;
15063;SDS011;7631;52.088;5.088;2023-07-09T14:50:03;6.68;;;3.97;;
15063;SDS011;7631;52.088;5.088;2023-07-09T14:52:29;4.90;;;3.80;;
15063;SDS011;7631;52.088;5.088;2023-07-09T14:54:55;7.13;;;4.30;;
15063;SDS011;7631;52.088;5.088;2023-07-09T14:57:21;5.78;;;3.83;;
15063;SDS011;7631;52.088;5.088;2023-07-09T14:59:47;5.75;;;4.00;;
15063;SDS011;7631;52.088;5.088;2023-07-09T15:02:20;6.65;;;4.28;;
15063;SDS011;7631;52.088;5.088;2023-07-09T15:04:46;4.93;;;3.78;;
15063;SDS011;7631;52.088;5.088;2023-07-09T15:07:11;8.38;;;4.40;;
15063;SDS011;7631;52.088;5.088;2023-07-09T15:09:37;6.07;;;4.13;;
15063;SDS011;7631;52.088;5.088;2023-07-09T15:12:03;6.22;;;4.38;;
15063;SDS011;7631;52.088;5.088;2023-07-09T15:14:28;6.75;;;4.72;;
15063;SDS011;7631;52.088;5.088;2023-07-09T15:16:54;5.40;;;3.70;;
15063;SDS011;7631;52.088;5.088;2023-07-09T15:19:20;4.85;;;4.03;;
15063;SDS011;7631;52.088;5.088;2023-07-09T15:21:48;6.28;;;3.90;;
15063;SDS011;7631;52.088;5.088;2023-07-09T15:24:21;4.78;;;3.58;;
15063;SDS011;7631;52.088;5.088;2023-07-09T15:26:49;5.72;;;4.00;;
15063;SDS011;7631;52.088;5.088;2023-07-09T15:29:17;6.95;;;3.95;;
15063;SDS011;7631;52.088;5.088;2023-07-09T15:31:43;4.78;;;4.03;;
15063;SDS011;7631;52.088;5.088;2023-07-09T15:34:08;5.50;;;4.53;;